Time;durP1;ratioP1;P1;durP2;ratioP2;P2;SDS_P1;SDS_P2;PMS_P1;PMS_P2;Temp;Humidity;BMP_temperature;BMP_pressure;BME280_temperature;BME280_humidity;BME280_pressure;Samples;Min_cycle;Max_cycle;Signal;HPM_P1;HPM_P2
2023/05/19 00:00:03;;;;;;;11.27;7.22;;;;;;;11.44;64.46;102541.13;5295241;28;20465;-69
2023/05/19 00:02:38;;;;;;;9.98;6.55;;;;;;;11.45;65.08;102548.06;5294574;28;20031;-69
2023/05/19 00:05:11;;;;;;;10.35;7.40;;;;;;;11.37;65.01;102540.66;5292113;28;20043;-69
2023/05/19 00:07:44;;;;;;;10.75;6.55;;;;;;;11.40;65.22;102545.72;5291360;28;20039;-69
2023/05/19 00:10:16;;;;;;;10.15;6.68;;;;;;;11.40;65.27;102545.72;5294898;28;20107;-69
2023/05/19 00:12:48;;;;;;;9.40;6.53;;;;;;;11.37;65.84;102530.16;5293005;28;20032;-68
2023/05/19 00:15:19;;;;;;;9.68;6.82;;;;;;;11.37;66.81;102538.03;5290128;28;20028;-69
2023/05/19 00:17:51;;;;;;;13.02;6.32;;;;;;;11.33;65.14;102538.31;5299697;28;20032;-68
2023/05/19 00:20:22;;;;;;;8.50;6.22;;;;;;;11.27;65.99;102523.78;5296940;28;20376;-68
2023/05/19 00:22:53;;;;;;;10.40;6.28;;;;;;;11.28;66.81;102525.44;5298371;28;20491;-68
2023/05/19 00:25:25;;;;;;;11.40;7.93;;;;;;;11.14;66.82;102510.56;5297056;28;20377;-68
2023/05/19 00:27:58;;;;;;;9.38;6.53;;;;;;;11.15;67.08;102520.13;5296812;28;20044;-69
2023/05/19 00:30:29;;;;;;;9.80;6.25;;;;;;;11.20;68.58;102517.19;5297685;28;20039;-69
2023/05/19 00:33:00;;;;;;;9.73;7.07;;;;;;;11.16;67.65;102510.47;5297163;28;20036;-69
2023/05/19 00:35:32;;;;;;;10.07;6.80;;;;;;;11.27;67.34;102507.19;5299990;28;20545;-69
2023/05/19 00:38:03;;;;;;;9.68;6.22;;;;;;;11.22;68.48;102502.22;5291823;28;20039;-69
2023/05/19 00:40:37;;;;;;;10.38;6.75;;;;;;;11.19;67.75;102505.03;5298401;28;20428;-69
2023/05/19 00:43:09;;;;;;;11.13;6.57;;;;;;;11.11;69.28;102515.16;5297184;28;20032;-69
2023/05/19 00:45:40;;;;;;;10.57;6.30;;;;;;;11.11;69.53;102507.28;5297607;28;20028;-69
2023/05/19 00:48:11;;;;;;;10.85;7.00;;;;;;;11.07;70.18;102490.88;5294478;28;20020;-67
2023/05/19 00:50:44;;;;;;;10.05;6.15;;;;;;;11.06;70.14;102490.97;5297748;28;20031;-68
2023/05/19 00:53:17;;;;;;;8.68;6.15;;;;;;;11.13;70.57;102500.97;5296133;28;20545;-67
2023/05/19 00:55:49;;;;;;;;;;;;;;;11.80;65.11;102508.25;5298197;28;20134;-68
2023/05/19 00:58:22;;;;;;;10.93;6.07;;;;;;;11.11;70.99;102510.75;5298492;28;19999;-68
2023/05/19 01:01:01;;;;;;;10.75;5.97;;;;;;;10.98;72.96;102511.56;5293942;28;20028;-68
2023/05/19 01:03:34;;;;;;;10.88;6.18;;;;;;;10.91;74.40;102509.31;5296788;28;20476;-68
2023/05/19 01:06:06;;;;;;;11.25;6.15;;;;;;;10.94;75.57;102516.16;5298484;28;20032;-68
2023/05/19 01:08:38;;;;;;;11.02;6.63;;;;;;;10.82;76.84;102512.47;5294911;28;20051;-68
2023/05/19 01:11:09;;;;;;;9.48;6.05;;;;;;;10.79;78.17;102507.41;5297337;28;20024;-68
2023/05/19 01:13:41;;;;;;;10.25;6.28;;;;;;;10.75;79.27;102505.91;5296996;28;20024;-68
2023/05/19 01:16:29;;;;;;;11.05;6.07;;;;;;;10.86;79.65;102513.97;5297487;28;20035;-68
2023/05/19 01:19:21;;;;;;;10.63;6.57;;;;;;;10.98;79.55;102504.53;5293523;28;20134;-68
2023/05/19 01:22:12;;;;;;;10.10;6.03;;;;;;;10.95;79.36;102504.75;5294731;28;20027;-68
2023/05/19 01:24:52;;;;;;;8.30;5.47;;;;;;;10.90;81.81;102505.00;5297352;28;20046;-68
2023/05/19 01:30:16;;;;;;;;;;;;;;;11.48;75.12;102510.25;5286561;22;20049;-67
2023/05/19 01:32:47;;;;;;;8.60;5.47;;;;;;;10.77;83.52;102503.22;5270510;28;19920;-66
2023/05/19 01:35:22;;;;;;;10.57;5.40;;;;;;;10.82;84.93;102509.84;5256291;28;20388;-66
2023/05/19 01:37:57;;;;;;;9.90;5.45;;;;;;;10.68;85.05;102504.56;5252681;28;20030;-67
2023/05/19 01:40:29;;;;;;;11.07;5.90;;;;;;;10.66;85.56;102502.06;5277000;28;20028;-66
2023/05/19 01:43:01;;;;;;;10.73;6.03;;;;;;;10.64;85.35;102505.69;5273665;28;20493;-67
2023/05/19 01:45:32;;;;;;;10.98;5.50;;;;;;;10.56;86.08;102484.34;5275208;28;20047;-67
2023/05/19 01:48:05;;;;;;;7.75;5.30;;;;;;;10.60;87.92;102504.19;5274461;28;20086;-67
2023/05/19 01:50:36;;;;;;;10.60;5.50;;;;;;;10.60;87.23;102493.69;5275518;28;20397;-66
2023/05/19 01:53:08;;;;;;;7.85;5.97;;;;;;;10.56;87.55;102495.66;5276224;28;20024;-66
2023/05/19 01:55:49;;;;;;;7.78;5.47;;;;;;;10.66;87.81;102496.81;5274330;28;20331;-67
2023/05/19 01:59:03;;;;;;;7.10;5.22;;;;;;;11.03;83.65;102489.38;5274831;28;20088;-66
2023/05/19 02:01:42;;;;;;;10.63;5.85;;;;;;;10.62;88.46;102481.38;5158809;28;20633;-66
2023/05/19 02:04:38;;;;;;;9.98;5.90;;;;;;;10.58;87.41;102487.72;5159508;28;20125;-67
2023/05/19 02:07:19;;;;;;;10.95;5.63;;;;;;;10.57;89.48;102486.88;5251790;28;20036;-67
2023/05/19 02:10:05;;;;;;;11.60;5.85;;;;;;;10.65;88.45;102486.44;5274749;28;20533;-67
2023/05/19 02:12:39;;;;;;;9.93;5.32;;;;;;;10.47;90.16;102490.97;5274672;28;20028;-67
2023/05/19 02:15:15;;;;;;;10.43;5.82;;;;;;;10.47;89.24;102481.31;5273217;28;20028;-66
2023/05/19 02:17:50;;;;;;;10.23;5.28;;;;;;;10.32;89.23;102487.44;5274516;28;20039;-66
2023/05/19 02:20:22;;;;;;;9.15;6.00;;;;;;;10.28;90.01;102488.56;5275765;28;20097;-67
2023/05/19 02:22:53;;;;;;;9.15;5.95;;;;;;;10.26;90.55;102486.94;5273807;28;20032;-67
2023/05/19 02:25:24;;;;;;;11.95;6.15;;;;;;;10.24;90.74;102481.78;5275035;28;20043;-66
2023/05/19 02:27:57;;;;;;;11.35;6.53;;;;;;;10.29;91.21;102478.91;5274797;28;20044;-66
2023/05/19 02:30:30;;;;;;;8.30;5.78;;;;;;;10.24;90.49;102481.78;5271841;28;20032;-66
2023/05/19 02:33:01;;;;;;;14.65;6.25;;;;;;;10.24;90.77;102482.63;5274796;28;20017;-66
2023/05/19 02:35:33;;;;;;;12.50;6.18;;;;;;;10.26;90.69;102474.69;5275329;28;20289;-66
2023/05/19 02:38:04;;;;;;;10.57;6.18;;;;;;;10.18;91.77;102479.50;5251945;28;20024;-66
2023/05/19 02:40:35;;;;;;;8.43;5.70;;;;;;;10.21;92.10;102474.94;5274744;28;20024;-66
2023/05/19 02:43:07;;;;;;;8.88;6.18;;;;;;;10.14;92.59;102463.13;5273799;28;20451;-66
2023/05/19 02:45:38;;;;;;;8.45;5.68;;;;;;;10.15;93.41;102477.03;5275264;28;20028;-66
2023/05/19 02:48:09;;;;;;;10.07;5.97;;;;;;;10.13;92.05;102476.31;5271080;28;20036;-66
2023/05/19 02:50:41;;;;;;;7.90;5.57;;;;;;;10.16;91.43;102474.34;5275125;28;20050;-66
2023/05/19 02:53:13;;;;;;;9.68;6.25;;;;;;;10.10;93.60;102466.00;5274312;28;20124;-66
2023/05/19 02:55:44;;;;;;;8.68;5.78;;;;;;;10.06;93.41;102467.09;5274265;28;20135;-66
2023/05/19 02:58:15;;;;;;;9.95;6.30;;;;;;;10.07;92.67;102474.03;5274010;28;20036;-66
2023/05/19 03:00:47;;;;;;;8.75;5.72;;;;;;;10.04;94.14;102466.34;5272966;28;20078;-66
2023/05/19 03:03:18;;;;;;;10.02;5.90;;;;;;;9.97;93.53;102466.69;5275332;28;20031;-66
2023/05/19 03:05:49;;;;;;;9.77;6.18;;;;;;;10.05;94.97;102460.19;5255704;28;20398;-66
2023/05/19 03:08:21;;;;;;;11.85;6.55;;;;;;;10.00;94.73;102468.31;5274366;28;20037;-66
2023/05/19 03:10:52;;;;;;;11.20;6.22;;;;;;;9.95;95.60;102468.53;5272671;28;20024;-66
2023/05/19 03:13:23;;;;;;;10.20;6.00;;;;;;;9.95;93.40;102472.94;5274120;28;20028;-66
2023/05/19 03:15:56;;;;;;;12.85;6.63;;;;;;;9.86;96.20;102465.63;5275526;28;20417;-66
2023/05/19 03:18:28;;;;;;;11.57;6.65;;;;;;;9.87;95.66;102470.75;5271998;28;20035;-67
2023/05/19 03:20:59;;;;;;;9.95;6.45;;;;;;;9.80;96.70;102472.03;5273200;28;20033;-67
2023/05/19 03:23:30;;;;;;;10.38;5.97;;;;;;;9.78;97.76;102471.28;5272139;28;20482;-67
2023/05/19 03:26:03;;;;;;;13.15;5.78;;;;;;;9.75;97.64;102479.28;5255844;28;20404;-67
2023/05/19 03:28:34;;;;;;;9.68;6.25;;;;;;;9.74;96.16;102486.31;5268226;28;20044;-66
2023/05/19 03:31:05;;;;;;;9.88;6.25;;;;;;;9.72;95.79;102480.31;5275165;28;20372;-66
2023/05/19 03:33:36;;;;;;;11.65;6.25;;;;;;;9.77;94.92;102480.03;5272959;28;20024;-66
2023/05/19 03:36:08;;;;;;;10.30;6.50;;;;;;;9.75;98.59;102476.69;5272830;28;20021;-66
2023/05/19 03:38:40;;;;;;;8.93;6.15;;;;;;;9.61;98.96;102492.28;5254771;28;20040;-66
2023/05/19 03:41:11;;;;;;;9.98;6.65;;;;;;;9.63;98.13;102483.44;5274131;28;20032;-67
2023/05/19 03:43:42;;;;;;;10.63;6.28;;;;;;;9.58;100.00;102482.81;5275703;28;20028;-66
2023/05/19 03:46:14;;;;;;;9.90;6.32;;;;;;;9.54;99.03;102489.16;5272929;28;20046;-66
2023/05/19 03:48:45;;;;;;;9.50;6.55;;;;;;;9.55;100.00;102492.63;5274553;28;20032;-66
2023/05/19 03:51:16;;;;;;;10.93;6.38;;;;;;;9.50;99.72;102488.47;5278461;28;20099;-67
2023/05/19 03:53:48;;;;;;;9.77;6.68;;;;;;;9.54;100.00;102493.53;5278398;28;20029;-66
2023/05/19 03:56:21;;;;;;;8.25;6.80;;;;;;;9.48;100.00;102492.94;5277255;28;20056;-67
2023/05/19 03:58:53;;;;;;;13.45;7.20;;;;;;;9.47;100.00;102495.63;5274205;28;20860;-66
2023/05/19 04:01:24;;;;;;;9.23;6.13;;;;;;;9.43;98.77;102489.75;5278186;28;20128;-67
2023/05/19 04:03:56;;;;;;;9.10;6.43;;;;;;;9.51;100.00;102486.72;5277203;28;20032;-66
2023/05/19 04:06:27;;;;;;;9.55;6.30;;;;;;;9.45;100.00;102482.66;5278197;28;20024;-66
2023/05/19 04:08:58;;;;;;;11.40;6.88;;;;;;;9.52;100.00;102485.78;5275107;28;20032;-66
2023/05/19 04:11:30;;;;;;;9.27;6.82;;;;;;;9.49;100.00;102483.34;5278033;28;20024;-67
2023/05/19 04:14:01;;;;;;;9.68;6.60;;;;;;;9.44;100.00;102488.81;5276150;28;20032;-67
2023/05/19 04:16:33;;;;;;;13.35;6.95;;;;;;;9.54;100.00;102477.84;5276818;28;20035;-66
2023/05/19 04:19:04;;;;;;;11.73;7.65;;;;;;;9.55;100.00;102484.78;5276310;28;20066;-67
2023/05/19 04:21:35;;;;;;;9.80;6.72;;;;;;;9.58;100.00;102476.75;5259235;28;20063;-66
2023/05/19 04:24:07;;;;;;;11.02;6.65;;;;;;;9.62;100.00;102475.66;5274644;28;20139;-67
2023/05/19 04:26:40;;;;;;;11.13;7.22;;;;;;;9.60;100.00;102467.91;5276984;28;20036;-67
2023/05/19 04:29:12;;;;;;;;;;;;;;;10.32;99.09;102481.38;5277300;28;20468;-66
2023/05/19 04:31:44;;;;;;;11.68;6.90;;;;;;;9.69;100.00;102480.47;5275722;28;19920;-66
2023/05/19 04:34:18;;;;;;;10.25;6.93;;;;;;;9.72;100.00;102480.31;5276967;28;20032;-66
2023/05/19 04:36:49;;;;;;;14.88;7.63;;;;;;;9.55;100.00;102482.16;5277329;28;20044;-66
2023/05/19 04:39:21;;;;;;;10.38;7.75;;;;;;;9.67;100.00;102489.34;5257574;28;20025;-66
2023/05/19 04:41:55;;;;;;;9.90;7.18;;;;;;;9.73;100.00;102486.38;5274760;28;20032;-67
2023/05/19 04:44:26;;;;;;;10.25;7.43;;;;;;;9.72;100.00;102480.31;5277548;28;20032;-67
2023/05/19 04:46:58;;;;;;;11.13;7.00;;;;;;;9.79;100.00;102488.66;5277427;28;20718;-66
2023/05/19 04:49:30;;;;;;;11.93;7.15;;;;;;;9.74;100.00;102485.47;5272521;28;20031;-67
2023/05/19 04:52:01;;;;;;;10.13;8.00;;;;;;;9.78;100.00;102486.16;5276793;28;20020;-66
2023/05/19 04:54:37;;;;;;;11.00;7.07;;;;;;;9.86;100.00;102490.03;5276537;28;20159;-66
2023/05/19 04:57:09;;;;;;;10.85;7.72;;;;;;;9.82;100.00;102491.13;5274956;28;20103;-67
2023/05/19 04:59:40;;;;;;;12.57;8.02;;;;;;;9.77;100.00;102487.88;5273880;28;20035;-67
2023/05/19 05:02:11;;;;;;;12.70;8.25;;;;;;;9.82;100.00;102488.50;5274220;28;20485;-66
2023/05/19 05:04:45;;;;;;;12.43;7.68;;;;;;;9.83;100.00;102487.56;5276117;28;20389;-67
2023/05/19 05:07:16;;;;;;;12.80;7.97;;;;;;;9.88;100.00;102488.13;5270022;28;20022;-66
2023/05/19 05:09:48;;;;;;;13.40;7.88;;;;;;;9.95;100.00;102488.66;5272517;28;20062;-66
2023/05/19 05:12:20;;;;;;;11.50;8.30;;;;;;;9.99;100.00;102491.00;5264163;28;20079;-66
2023/05/19 05:14:52;;;;;;;13.82;8.07;;;;;;;10.02;100.00;102497.00;5273540;28;20051;-67
2023/05/19 05:17:24;;;;;;;12.35;8.25;;;;;;;10.11;100.00;102492.09;5265666;28;20535;-66
2023/05/19 05:19:56;;;;;;;10.48;7.60;;;;;;;10.09;100.00;102490.50;5271003;28;20043;-66
2023/05/19 05:22:27;;;;;;;11.68;8.52;;;;;;;10.12;100.00;102491.19;5256915;28;20028;-66
2023/05/19 05:24:59;;;;;;;14.25;9.50;;;;;;;10.23;100.00;102491.41;5275529;28;20020;-66
2023/05/19 05:27:31;;;;;;;12.95;8.13;;;;;;;10.21;100.00;102488.03;5273403;28;20038;-67
2023/05/19 05:30:03;;;;;;;11.45;8.60;;;;;;;10.31;100.00;102500.66;5273467;28;20020;-66
2023/05/19 05:32:35;;;;;;;11.77;8.20;;;;;;;10.38;100.00;102502.81;5277187;28;20017;-66
2023/05/19 05:35:06;;;;;;;13.57;9.45;;;;;;;10.43;100.00;102503.41;5276425;28;20013;-66
2023/05/19 05:37:38;;;;;;;10.10;8.18;;;;;;;10.48;100.00;102503.97;5269348;28;20489;-66
2023/05/19 05:40:09;;;;;;;11.38;8.60;;;;;;;10.55;100.00;102495.75;5275430;28;20489;-67
2023/05/19 05:42:41;;;;;;;13.15;8.60;;;;;;;10.59;100.00;102494.66;5267297;28;20042;-66
2023/05/19 05:45:13;;;;;;;14.50;8.40;;;;;;;10.61;100.00;102498.88;5271444;28;20039;-66
2023/05/19 05:47:44;;;;;;;12.25;8.68;;;;;;;10.69;100.00;102493.19;5253913;28;20033;-66
2023/05/19 05:50:16;;;;;;;12.98;8.68;;;;;;;10.71;100.00;102500.00;5270173;28;20028;-66
2023/05/19 05:52:49;;;;;;;12.15;8.50;;;;;;;10.79;100.00;102491.69;5272878;28;20477;-66
2023/05/19 05:55:21;;;;;;;10.73;8.30;;;;;;;10.82;100.00;102491.50;5266172;28;20031;-66
2023/05/19 05:57:53;;;;;;;13.18;8.95;;;;;;;10.90;100.00;102491.88;5266613;28;20029;-67
2023/05/19 06:00:26;;;;;;;13.60;8.27;;;;;;;10.99;100.00;102495.75;5250666;28;20033;-66
2023/05/19 06:02:58;;;;;;;10.23;8.05;;;;;;;11.02;100.00;102498.16;5274808;28;20027;-66
2023/05/19 06:05:29;;;;;;;13.82;8.30;;;;;;;11.19;100.00;102498.00;5272516;28;20033;-66
2023/05/19 06:08:00;;;;;;;12.90;8.20;;;;;;;11.30;100.00;102507.00;5270192;28;20028;-66
2023/05/19 06:10:32;;;;;;;11.77;8.50;;;;;;;11.42;99.72;102506.25;5268281;28;20089;-66
2023/05/19 06:13:03;;;;;;;12.32;8.00;;;;;;;11.47;97.50;102501.53;5249729;28;20020;-67
2023/05/19 06:15:35;;;;;;;11.48;7.40;;;;;;;11.59;98.49;102506.06;5273011;28;20040;-66
2023/05/19 06:18:06;;;;;;;14.48;8.27;;;;;;;11.71;97.29;102508.84;5271701;28;20032;-66
2023/05/19 06:20:37;;;;;;;10.10;7.72;;;;;;;11.72;93.92;102508.75;5272348;28;20012;-67
2023/05/19 06:23:09;;;;;;;10.75;7.30;;;;;;;11.84;95.89;102505.34;5271532;28;20378;-67
2023/05/19 06:25:41;;;;;;;10.68;7.65;;;;;;;11.89;94.24;102507.69;5269130;28;20020;-66
2023/05/19 06:28:12;;;;;;;11.13;8.10;;;;;;;12.00;94.41;102513.09;5274816;28;20057;-66
2023/05/19 06:30:43;;;;;;;11.82;7.35;;;;;;;12.05;92.20;102516.28;5256200;28;20111;-67
2023/05/19 06:33:14;;;;;;;12.20;7.78;;;;;;;12.09;91.57;102509.06;5271091;28;20600;-67
2023/05/19 06:35:46;;;;;;;10.75;7.63;;;;;;;12.17;90.98;102519.91;5269631;28;20021;-67
2023/05/19 06:38:17;;;;;;;12.00;7.80;;;;;;;12.24;91.45;102515.94;5273777;28;20025;-67
2023/05/19 06:40:48;;;;;;;15.57;8.07;;;;;;;12.32;90.50;102511.03;5273590;28;20042;-66
2023/05/19 06:43:21;;;;;;;12.10;7.67;;;;;;;12.44;90.54;102508.53;5271545;28;20052;-67
2023/05/19 06:45:52;;;;;;;11.75;7.72;;;;;;;12.50;91.49;102508.09;5273791;28;20470;-67
2023/05/19 06:48:23;;;;;;;17.95;8.50;;;;;;;12.55;89.83;102498.16;5274569;28;20105;-67
2023/05/19 06:50:55;;;;;;;8.70;6.72;;;;;;;12.82;89.84;102513.84;5271583;28;20117;-67
2023/05/19 06:53:26;;;;;;;10.48;7.35;;;;;;;12.86;86.67;102500.38;5274669;28;20024;-66
2023/05/19 06:55:57;;;;;;;11.60;7.57;;;;;;;13.02;85.40;102504.59;5270553;28;20112;-66
2023/05/19 06:58:29;;;;;;;13.10;7.75;;;;;;;13.09;85.14;102508.50;5262359;28;20477;-67
2023/05/19 07:01:00;;;;;;;11.85;7.30;;;;;;;13.19;83.40;102508.72;5271122;28;20024;-67
2023/05/19 07:03:31;;;;;;;8.00;6.85;;;;;;;13.28;82.55;102511.56;5272546;28;20040;-67
2023/05/19 07:06:02;;;;;;;11.93;7.47;;;;;;;13.42;81.85;102507.97;5271867;28;20033;-67
2023/05/19 07:08:35;;;;;;;10.65;6.90;;;;;;;13.62;80.82;102506.56;5270640;28;20044;-67
2023/05/19 07:11:07;;;;;;;10.77;7.07;;;;;;;13.79;80.10;102500.09;5272341;28;20073;-67
2023/05/19 07:13:38;;;;;;;14.95;7.32;;;;;;;13.87;76.75;102495.94;5269200;28;20021;-67
2023/05/19 07:16:09;;;;;;;14.25;6.88;;;;;;;14.14;75.64;102501.97;5267584;28;20081;-67
2023/05/19 07:18:40;;;;;;;10.00;6.60;;;;;;;14.30;76.61;102508.59;5269804;28;20032;-67
2023/05/19 07:21:12;;;;;;;10.88;7.32;;;;;;;14.45;75.37;102500.50;5270164;28;20021;-67
2023/05/19 07:23:43;;;;;;;9.65;6.80;;;;;;;14.54;70.94;102500.69;5270590;28;20028;-67
2023/05/19 07:26:15;;;;;;;12.02;6.45;;;;;;;14.62;73.08;102499.25;5275992;28;20051;-67
2023/05/19 07:28:46;;;;;;;11.43;7.20;;;;;;;14.81;70.38;102494.25;5277162;28;20344;-67
2023/05/19 07:31:17;;;;;;;10.05;6.18;;;;;;;15.11;73.38;102500.78;5274765;28;20447;-67
2023/05/19 07:33:48;;;;;;;9.80;6.13;;;;;;;15.18;69.76;102504.63;5276292;28;20071;-67
2023/05/19 07:36:20;;;;;;;11.02;6.05;;;;;;;15.35;68.34;102500.69;5266707;28;20056;-67
2023/05/19 07:38:51;;;;;;;9.85;5.72;;;;;;;15.46;65.29;102503.31;5259200;28;20116;-67
2023/05/19 07:41:22;;;;;;;9.38;5.72;;;;;;;15.56;64.94;102501.59;5268855;28;21171;-67
2023/05/19 07:43:54;;;;;;;8.60;5.38;;;;;;;15.71;64.95;102503.06;5275046;28;20036;-67
2023/05/19 07:46:25;;;;;;;14.00;6.70;;;;;;;15.87;64.48;102502.66;5272641;28;20032;-67
2023/05/19 07:48:56;;;;;;;10.35;6.55;;;;;;;15.99;65.21;102495.56;5274386;28;20389;-67
2023/05/19 07:51:28;;;;;;;10.13;6.18;;;;;;;16.02;62.65;102490.88;5272102;28;20036;-67
2023/05/19 07:53:59;;;;;;;10.07;5.93;;;;;;;16.26;61.73;102493.28;5274232;28;20623;-67
2023/05/19 07:56:30;;;;;;;9.82;5.85;;;;;;;16.41;61.53;102491.16;5276909;28;20596;-67
2023/05/19 07:59:03;;;;;;;9.90;5.30;;;;;;;16.45;60.73;102491.75;5272529;28;20029;-67
2023/05/19 08:01:34;;;;;;;9.77;5.75;;;;;;;16.51;58.66;102489.41;5273669;28;20028;-67
2023/05/19 08:04:05;;;;;;;9.45;5.65;;;;;;;16.70;59.23;102491.34;5273952;28;20108;-67
2023/05/19 08:06:37;;;;;;;9.60;4.82;;;;;;;16.82;56.77;102491.31;5269781;28;20032;-67
2023/05/19 08:09:08;;;;;;;8.10;5.43;;;;;;;16.77;56.00;102491.69;5272133;28;20020;-67
2023/05/19 08:11:40;;;;;;;11.02;5.60;;;;;;;17.01;55.47;102491.44;5275667;28;20514;-67
2023/05/19 08:14:11;;;;;;;9.35;4.85;;;;;;;16.94;56.84;102488.47;5272530;28;20031;-67
2023/05/19 08:16:44;;;;;;;9.75;4.78;;;;;;;17.06;53.11;102485.75;5276187;28;20115;-67
2023/05/19 08:19:15;;;;;;;12.60;5.60;;;;;;;17.20;53.48;102488.03;5256549;28;20112;-67
2023/05/19 08:21:47;;;;;;;7.32;4.85;;;;;;;17.28;52.72;102477.59;5272177;28;20033;-67
2023/05/19 08:24:18;;;;;;;10.93;5.25;;;;;;;17.33;52.22;102479.84;5274842;28;20095;-67
2023/05/19 08:26:50;;;;;;;8.80;4.63;;;;;;;17.48;53.37;102470.53;5274625;28;20029;-67
2023/05/19 08:29:21;;;;;;;9.43;4.85;;;;;;;17.66;51.47;102474.22;5255340;28;20525;-67
2023/05/19 08:31:52;;;;;;;9.38;4.55;;;;;;;17.84;53.04;102470.91;5274774;28;20028;-67
2023/05/19 08:34:24;;;;;;;9.82;4.93;;;;;;;17.90;52.67;102465.06;5273910;28;20075;-67
2023/05/19 08:36:56;;;;;;;9.63;4.63;;;;;;;18.05;51.55;102463.66;5268697;28;20626;-67
2023/05/19 08:39:27;;;;;;;7.83;4.20;;;;;;;18.19;48.74;102454.47;5274157;28;20085;-67
2023/05/19 08:42:00;;;;;;;7.78;3.92;;;;;;;18.37;48.51;102452.78;5274949;28;20282;-68
2023/05/19 08:44:31;;;;;;;8.55;4.60;;;;;;;18.66;48.73;102452.69;5272182;28;20024;-67
2023/05/19 08:47:04;;;;;;;7.10;4.18;;;;;;;18.78;47.21;102448.06;5273725;28;20082;-67
2023/05/19 08:49:44;;;;;;;7.53;4.10;;;;;;;19.09;47.44;102451.31;5254185;28;20466;-67
2023/05/19 08:52:26;;;;;;;8.35;3.72;;;;;;;19.15;46.44;102448.06;5274598;28;20029;-68
2023/05/19 08:55:20;;;;;;;8.47;3.47;;;;;;;19.34;46.23;102449.78;5271542;28;20032;-67
2023/05/19 08:57:52;;;;;;;7.97;4.07;;;;;;;19.25;45.46;102447.19;5271934;28;20107;-68
2023/05/19 09:00:24;;;;;;;7.22;3.78;;;;;;;19.51;46.27;102442.84;5274200;28;20028;-67
2023/05/19 09:02:56;;;;;;;7.23;3.27;;;;;;;19.52;43.88;102444.50;5275797;28;20068;-68
2023/05/19 09:05:27;;;;;;;8.80;3.83;;;;;;;19.72;43.74;102439.09;5271583;28;20154;-68
2023/05/19 09:08:01;;;;;;;11.73;3.58;;;;;;;19.93;43.59;102435.13;5270625;28;20032;-67
2023/05/19 09:10:32;;;;;;;6.93;3.17;;;;;;;20.01;45.36;102431.72;5273514;28;20396;-68
2023/05/19 09:13:04;;;;;;;9.37;3.20;;;;;;;20.12;42.15;102423.50;5274722;28;20035;-68
2023/05/19 09:15:37;;;;;;;6.83;3.00;;;;;;;20.22;42.29;102418.06;5269883;28;20024;-67
2023/05/19 09:18:14;;;;;;;7.93;2.97;;;;;;;20.22;40.16;102419.88;5274794;28;20020;-67
2023/05/19 09:20:46;;;;;;;7.32;2.70;;;;;;;19.99;39.52;102420.38;5271776;28;20051;-67
2023/05/19 09:23:17;;;;;;;8.57;3.47;;;;;;;20.12;40.66;102418.16;5270355;28;20037;-68
2023/05/19 09:25:50;;;;;;;6.93;2.42;;;;;;;20.27;39.69;102417.63;5271076;28;20397;-67
2023/05/19 09:28:23;;;;;;;6.70;2.50;;;;;;;20.30;38.86;102419.94;5265801;28;20033;-68
2023/05/19 09:31:02;;;;;;;7.88;2.45;;;;;;;20.53;36.63;102418.50;5270292;28;20032;-68
2023/05/19 09:33:35;;;;;;;7.22;2.28;;;;;;;20.38;36.62;102410.22;5269855;28;20154;-67
2023/05/19 09:36:07;;;;;;;5.90;2.50;;;;;;;20.46;36.54;102408.59;5268760;28;20033;-68
2023/05/19 09:38:39;;;;;;;7.60;2.57;;;;;;;20.58;36.44;102405.53;5268450;28;20032;-68
2023/05/19 09:41:13;;;;;;;10.73;2.37;;;;;;;20.87;36.18;102409.66;5271241;28;20024;-68
2023/05/19 09:43:53;;;;;;;7.80;1.90;;;;;;;21.03;36.96;102412.41;5266738;28;20032;-68
2023/05/19 09:46:28;;;;;;;4.15;2.05;;;;;;;20.89;36.17;102402.34;5271239;28;20497;-68
2023/05/19 09:49:08;;;;;;;8.48;2.00;;;;;;;20.99;35.89;102408.38;5273358;28;20382;-68
2023/05/19 09:51:43;;;;;;;5.80;1.88;;;;;;;21.01;35.71;102406.38;5268525;28;20021;-68
2023/05/19 09:54:15;;;;;;;6.88;2.50;;;;;;;20.82;34.68;102419.97;5268689;28;20036;-68
2023/05/19 09:57:00;;;;;;;4.95;2.25;;;;;;;21.20;36.93;102415.13;5269420;28;20111;-68
2023/05/19 09:59:31;;;;;;;4.00;1.80;;;;;;;21.01;36.58;102409.03;5268017;28;20029;-68
2023/05/19 10:02:03;;;;;;;6.10;2.40;;;;;;;21.33;35.87;102420.88;5272171;28;20067;-68
2023/05/19 10:04:35;;;;;;;5.07;1.73;;;;;;;21.21;33.32;102417.59;5272309;28;20033;-68
2023/05/19 10:07:10;;;;;;;9.57;2.50;;;;;;;21.34;34.63;102414.53;5272151;28;20443;-68
2023/05/19 10:09:43;;;;;;;5.75;2.15;;;;;;;21.41;34.25;102410.22;5269934;28;20028;-67
2023/05/19 10:12:16;;;;;;;7.00;2.08;;;;;;;21.32;35.09;102408.47;5272201;28;20026;-68
2023/05/19 10:14:48;;;;;;;9.18;2.40;;;;;;;21.14;34.09;102403.28;5271235;28;20032;-68
2023/05/19 10:17:20;;;;;;;6.33;1.97;;;;;;;21.36;35.88;102401.84;5269184;28;20586;-68
2023/05/19 10:19:53;;;;;;;7.57;2.03;;;;;;;21.33;34.67;102410.19;5268961;28;20048;-68
2023/05/19 10:22:24;;;;;;;4.55;2.10;;;;;;;21.20;34.43;102405.28;5272371;28;20028;-68
2023/05/19 10:24:56;;;;;;;6.93;2.33;;;;;;;21.52;34.74;102401.06;5272405;28;20378;-68
2023/05/19 10:27:29;;;;;;;8.07;2.53;;;;;;;21.46;32.11;102409.72;5270192;28;20476;-68
2023/05/19 10:30:06;;;;;;;5.45;2.10;;;;;;;21.27;32.29;102410.81;5246505;28;20127;-68
2023/05/19 10:32:40;;;;;;;7.75;2.13;;;;;;;21.19;33.46;102405.47;5268513;28;20421;-68
2023/05/19 10:35:29;;;;;;;5.38;2.33;;;;;;;21.12;32.91;102402.59;5269966;28;20488;-68
2023/05/19 10:38:22;;;;;;;5.78;1.77;;;;;;;21.67;35.37;102393.22;5269280;28;20028;-68
2023/05/19 10:41:10;;;;;;;4.47;2.03;;;;;;;21.72;33.91;102382.91;5270909;28;20207;-68
2023/05/19 10:44:20;;;;;;;6.68;2.33;;;;;;;22.09;34.67;102388.56;5272145;28;20033;-68
2023/05/19 10:46:51;;;;;;;5.85;2.25;;;;;;;21.66;34.14;102380.91;5247145;28;20042;-68
2023/05/19 10:49:23;;;;;;;5.40;2.20;;;;;;;21.56;33.82;102370.41;5271221;28;20032;-68
2023/05/19 10:51:57;;;;;;;7.50;2.33;;;;;;;21.49;34.57;102378.22;5273179;28;20444;-68
2023/05/19 10:54:47;;;;;;;6.30;2.63;;;;;;;21.93;34.55;102367.22;5269900;28;20020;-68
2023/05/19 10:57:23;;;;;;;4.95;1.88;;;;;;;21.82;33.90;102378.22;5274219;28;20032;-68
2023/05/19 10:59:56;;;;;;;7.22;2.65;;;;;;;21.80;34.33;102380.25;5269462;28;20033;-68
2023/05/19 11:02:39;;;;;;;7.22;2.42;;;;;;;22.19;35.54;102376.91;5269137;28;20083;-68
2023/05/19 11:05:13;;;;;;;8.52;2.50;;;;;;;22.06;34.06;102372.06;5271984;28;20016;-68
2023/05/19 11:07:55;;;;;;;7.07;2.20;;;;;;;22.33;33.77;102381.56;5270295;28;20024;-68
2023/05/19 11:10:26;;;;;;;4.47;2.20;;;;;;;22.10;33.23;102376.06;5272397;28;20036;-68
2023/05/19 11:12:58;;;;;;;6.57;2.07;;;;;;;22.00;32.28;102376.22;5273121;28;20028;-71
2023/05/19 11:15:35;;;;;;;4.53;2.37;;;;;;;22.02;33.36;102371.56;5254496;28;20028;-68
2023/05/19 11:18:07;;;;;;;6.45;2.20;;;;;;;21.89;33.22;102373.91;5268900;28;20495;-68
2023/05/19 11:20:38;;;;;;;5.47;2.20;;;;;;;21.93;32.58;102369.88;5253075;28;20037;-68
2023/05/19 11:23:17;;;;;;;8.87;2.20;;;;;;;22.09;32.28;102364.56;5271990;28;20085;-68
2023/05/19 11:25:52;;;;;;;7.57;2.22;;;;;;;22.34;33.32;102369.84;5270645;28;20509;-68
2023/05/19 11:28:25;;;;;;;5.90;2.03;;;;;;;22.18;29.49;102367.22;5274456;28;20048;-68
2023/05/19 11:30:57;;;;;;;;;;;;;;;23.08;30.00;102370.44;5273773;28;20075;-68
2023/05/19 11:33:31;;;;;;;4.47;1.73;;;;;;;22.45;30.51;102368.66;5269441;28;20712;-67
2023/05/19 11:36:03;;;;;;;4.93;1.88;;;;;;;22.22;29.13;102366.72;5273007;28;20051;-67
2023/05/19 11:38:35;;;;;;;5.72;1.63;;;;;;;22.39;30.96;102350.66;5268701;28;20043;-67
2023/05/19 11:41:06;;;;;;;7.17;2.30;;;;;;;22.39;30.22;102356.00;5265852;28;20024;-67
2023/05/19 11:43:37;;;;;;;8.77;2.17;;;;;;;22.36;29.90;102365.19;5273007;28;20032;-67
2023/05/19 11:46:09;;;;;;;4.47;1.93;;;;;;;22.34;30.05;102361.84;5272512;28;20033;-67
2023/05/19 11:48:40;;;;;;;4.93;2.17;;;;;;;22.51;31.25;102350.13;5247605;28;20056;-67
2023/05/19 11:51:12;;;;;;;6.63;2.30;;;;;;;22.54;28.81;102349.78;5269192;28;20028;-67